This is the latest recevied weather packets stored in our database for station/object OE6ACM-14. If no packets are shown the sender has not sent any weather packets the latest 10 day(s).
| Time | Temp. | Humidity | Pressure | Rain* | Wind** | Luminosity | Snow |
|---|---|---|---|---|---|---|---|
| 1787915724 | 32.22° C | 41% | 925.5 hPa | - | - | - | - |
| 1787915424 | 32.22° C | 43% | 925.6 hPa | - | - | - | - |
| 1787915124 | 31.67° C | 43% | 925.5 hPa | - | - | - | - |
| 1787914824 | 31.67° C | 42% | 925.7 hPa | - | - | - | - |
| 1787914524 | 31.11° C | 45% | 925.6 hPa | - | - | - | - |
| 1787914224 | 30.56° C | 44% | 925.7 hPa | - | - | - | - |
| 1787913924 | 31.11° C | 43% | 925.7 hPa | - | - | - | - |
| 1787913624 | 31.11° C | 44% | 925.8 hPa | - | - | - | - |
| 1787913324 | 31.11° C | 43% | 926 hPa | - | - | - | - |
| 1787913024 | 31.11° C | 42% | 926.1 hPa | - | - | - | - |
| 1787912724 | 31.67° C | 43% | 926.2 hPa | - | - | - | - |
| 1787912424 | 31.11° C | 43% | 926.2 hPa | - | - | - | - |
| 1787912124 | 31.11° C | 44% | 926.3 hPa | - | - | - | - |
| 1787911824 | 30.56° C | 44% | 926.5 hPa | - | - | - | - |
| 1787911524 | 30° C | 45% | 926.5 hPa | - | - | - | - |
| 1787911224 | 30° C | 44% | 926.6 hPa | - | - | - | - |
| 1787910924 | 30.56° C | 45% | 926.6 hPa | - | - | - | - |
| 1787910624 | 30° C | 44% | 926.6 hPa | - | - | - | - |
| 1787910324 | 30.56° C | 43% | 926.7 hPa | - | - | - | - |
| 1787910024 | 31.11° C | 41% | 926.8 hPa | - | - | - | - |
| 1787909724 | 31.11° C | 41% | 927 hPa | - | - | - | - |
| 1787909424 | 32.22° C | 39% | 927.1 hPa | - | - | - | - |
| 1787909124 | 34.44° C | 36% | 927.2 hPa | - | - | - | - |
| 1787908824 | 35° C | 34% | 927.3 hPa | - | - | - | - |
| 1787908524 | 35° C | 35% | 927.4 hPa | - | - | - | - |
* Rain since midnight (hover to see other rain measurements)
** Current wind speed in m/s (hover to see current wind gust speed)